createdAt,value
2023-05-29T00:05:00.815Z,9.9
2023-05-29T00:10:01.529Z,9.8
2023-05-29T00:15:00.754Z,9.8
2023-05-29T00:20:00.655Z,9.7
2023-05-29T00:30:15.489Z,9.6
2023-05-29T00:55:01.355Z,9.3
2023-05-29T01:00:03.525Z,9.2
2023-05-29T01:15:01.367Z,9.1
2023-05-29T01:25:01.391Z,9.0
2023-05-29T01:30:01.272Z,8.9
2023-05-29T01:40:02.022Z,8.8
2023-05-29T01:45:01.486Z,8.8
2023-05-29T01:55:01.351Z,8.7
2023-05-29T02:00:04.523Z,8.7
2023-05-29T02:05:01.389Z,8.6
2023-05-29T02:15:01.610Z,8.5
2023-05-29T02:25:01.384Z,8.4
2023-05-29T02:30:01.260Z,8.3
2023-05-29T02:40:01.847Z,8.2
2023-05-29T02:45:01.519Z,8.2
2023-05-29T03:00:04.431Z,8.1
2023-05-29T03:10:02.207Z,8.0
2023-05-29T03:15:01.320Z,8.0
2023-05-29T03:30:01.526Z,8.0
2023-05-29T03:40:02.110Z,8.1
2023-05-29T03:45:01.255Z,8.1
2023-05-29T03:50:01.446Z,8.2
2023-05-29T03:55:01.268Z,8.3
2023-05-29T04:00:03.957Z,8.5
2023-05-29T04:05:01.262Z,8.6
2023-05-29T04:10:01.293Z,8.7
2023-05-29T04:15:01.267Z,8.8
2023-05-29T04:20:01.350Z,8.9
2023-05-29T04:25:01.269Z,9.0
2023-05-29T04:30:01.344Z,9.1
2023-05-29T04:35:01.269Z,9.2
2023-05-29T04:40:01.400Z,9.3
2023-05-29T04:45:01.289Z,9.4
2023-05-29T04:50:01.323Z,9.6
2023-05-29T04:55:01.312Z,9.7
2023-05-29T05:00:03.295Z,10.0
2023-05-29T05:05:01.304Z,10.2
2023-05-29T05:10:01.315Z,10.5
2023-05-29T05:15:01.279Z,10.7
2023-05-29T05:20:01.418Z,11.0
2023-05-29T05:25:16.117Z,11.1
2023-05-29T05:30:01.366Z,11.3
2023-05-29T05:35:02.384Z,11.4
2023-05-29T05:40:01.328Z,11.5
2023-05-29T05:45:02.422Z,11.6
2023-05-29T05:50:02.198Z,11.9
2023-05-29T05:55:01.391Z,12.0
2023-05-29T06:00:03.291Z,12.2
2023-05-29T06:05:01.487Z,12.4
2023-05-29T06:10:07.235Z,12.6
2023-05-29T06:15:02.043Z,12.7
2023-05-29T06:20:01.380Z,12.8
2023-05-29T06:30:02.672Z,12.9
2023-05-29T06:35:01.433Z,13.0
2023-05-29T06:40:01.421Z,13.2
2023-05-29T06:45:01.454Z,13.3
2023-05-29T06:50:02.228Z,13.5
2023-05-29T06:55:01.458Z,13.7
2023-05-29T07:00:03.554Z,14.0
2023-05-29T07:05:01.449Z,14.2
2023-05-29T07:10:01.435Z,14.4
2023-05-29T07:15:02.472Z,14.5
2023-05-29T07:20:01.366Z,14.6
2023-05-29T07:25:02.017Z,14.7
2023-05-29T07:30:02.293Z,14.9
2023-05-29T07:35:02.390Z,15.0
2023-05-29T07:40:01.385Z,15.2
2023-05-29T07:45:02.149Z,15.4
2023-05-29T07:50:01.462Z,15.5
2023-05-29T08:00:03.238Z,15.6
2023-05-29T08:05:01.428Z,15.7
2023-05-29T08:15:01.459Z,15.9
2023-05-29T08:20:01.407Z,16.1
2023-05-29T08:25:02.362Z,16.3
2023-05-29T08:30:01.500Z,16.5
2023-05-29T08:35:01.419Z,16.7
2023-05-29T08:40:01.332Z,16.8
2023-05-29T08:45:01.379Z,16.8
2023-05-29T08:55:02.369Z,17.0
2023-05-29T09:00:03.435Z,17.1
2023-05-29T09:05:16.152Z,17.4
2023-05-29T09:35:01.368Z,18.8
2023-05-29T09:45:01.283Z,18.9
2023-05-29T09:55:01.314Z,19.0
2023-05-29T10:00:03.169Z,19.1
2023-05-29T10:05:02.187Z,19.2
2023-05-29T10:10:01.830Z,19.3
2023-05-29T10:15:01.261Z,19.5
2023-05-29T10:20:01.218Z,19.6
2023-05-29T10:25:02.131Z,19.7
2023-05-29T10:30:01.194Z,19.8
2023-05-29T10:35:06.290Z,19.9
2023-05-29T10:40:01.873Z,20.0
2023-05-29T10:45:01.683Z,20.1
2023-05-29T10:50:01.175Z,20.2
2023-05-29T11:00:03.464Z,20.3
2023-05-29T11:15:01.433Z,20.4
2023-05-29T11:25:01.332Z,20.5
2023-05-29T11:30:02.150Z,20.6
2023-05-29T11:35:01.216Z,20.8
2023-05-29T11:40:01.211Z,20.9
2023-05-29T11:45:02.389Z,21.0
2023-05-29T11:55:01.896Z,21.1
2023-05-29T12:00:16.024Z,21.2
2023-05-29T12:05:01.322Z,21.3
2023-05-29T12:10:16.001Z,21.5
2023-05-29T12:35:01.073Z,22.1
2023-05-29T12:45:01.080Z,22.2
2023-05-29T13:00:03.560Z,22.2
2023-05-29T13:05:01.603Z,22.1
2023-05-29T13:10:01.011Z,22.0
2023-05-29T13:15:01.164Z,22.1
2023-05-29T13:20:01.575Z,22.2
2023-05-29T13:30:01.939Z,22.2
2023-05-29T13:40:01.219Z,22.1
2023-05-29T13:45:01.268Z,22.0
2023-05-29T13:50:02.023Z,22.1
2023-05-29T13:55:01.105Z,22.3
2023-05-29T14:00:03.524Z,22.6
2023-05-29T14:05:01.760Z,22.7
2023-05-29T14:10:15.802Z,22.8
2023-05-29T14:35:01.259Z,22.6
2023-05-29T14:45:01.268Z,22.7
2023-05-29T14:50:01.119Z,22.8
2023-05-29T14:55:02.405Z,22.7
2023-05-29T15:00:03.691Z,22.6
2023-05-29T15:15:01.341Z,22.5
2023-05-29T15:30:02.160Z,22.3
2023-05-29T15:35:01.244Z,22.2
2023-05-29T15:45:01.270Z,22.1
2023-05-29T15:55:03.347Z,22.2
2023-05-29T16:00:04.029Z,22.2
2023-05-29T16:10:02.178Z,22.3
2023-05-29T16:15:15.989Z,22.6
2023-05-29T16:45:00.804Z,23.2
2023-05-29T16:55:00.675Z,22.6
2023-05-29T17:00:04.104Z,22.3
2023-05-29T17:05:01.665Z,22.0
2023-05-29T17:10:00.561Z,21.5
2023-05-29T17:15:00.609Z,21.0
2023-05-29T17:20:15.390Z,20.8
2023-05-29T17:25:00.541Z,20.5
2023-05-29T17:30:15.360Z,20.4
2023-05-29T17:55:01.196Z,19.0
2023-05-29T18:00:00.564Z,19.0
2023-05-29T18:05:01.066Z,18.9
2023-05-29T18:10:00.474Z,18.8
2023-05-29T18:15:00.453Z,18.7
2023-05-29T18:20:00.422Z,18.5
2023-05-29T18:25:00.391Z,18.2
2023-05-29T18:30:00.380Z,18.0
2023-05-29T18:35:00.559Z,17.8
2023-05-29T18:40:00.454Z,17.6
2023-05-29T18:45:00.365Z,17.4
2023-05-29T18:50:00.839Z,17.2
2023-05-29T18:55:00.399Z,16.9
2023-05-29T19:00:00.559Z,16.8
2023-05-29T19:05:00.460Z,16.5
2023-05-29T19:10:00.378Z,16.4
2023-05-29T19:15:00.403Z,16.1
2023-05-29T19:20:00.375Z,16.0
2023-05-29T19:25:00.375Z,15.8
2023-05-29T19:30:01.353Z,15.8
2023-05-29T19:35:01.212Z,15.6
2023-05-29T19:40:00.421Z,15.5
2023-05-29T19:45:00.388Z,15.4
2023-05-29T19:50:00.976Z,15.3
2023-05-29T19:55:00.496Z,15.1
2023-05-29T20:00:04.689Z,15.0
2023-05-29T20:05:01.313Z,14.9
2023-05-29T20:10:00.407Z,14.8
2023-05-29T20:15:00.492Z,14.6
2023-05-29T20:20:00.409Z,14.5
2023-05-29T20:25:15.213Z,14.3
2023-05-29T20:55:02.243Z,13.4
2023-05-29T21:00:04.011Z,13.4
2023-05-29T21:15:02.002Z,13.3
2023-05-29T21:25:01.338Z,13.2
2023-05-29T21:30:01.752Z,13.1
2023-05-29T21:35:01.338Z,13.0
2023-05-29T21:40:01.288Z,12.9
2023-05-29T21:45:02.424Z,12.8
2023-05-29T21:55:02.357Z,12.7
2023-05-29T22:00:03.440Z,12.6
2023-05-29T22:10:02.662Z,12.5
2023-05-29T22:15:01.482Z,12.4
2023-05-29T22:20:02.119Z,12.3
2023-05-29T22:25:01.596Z,12.2
2023-05-29T22:30:16.136Z,12.2
2023-05-29T22:55:15.378Z,11.8
2023-05-29T23:25:15.724Z,11.6
2023-05-29T23:30:15.677Z,11.6
2023-05-29T23:55:01.533Z,11.3
